Time;durP1;ratioP1;P1;durP2;ratioP2;P2;SDS_P1;SDS_P2;PMS_P1;PMS_P2;Temp;Humidity;BMP_temperature;BMP_pressure;BME280_temperature;BME280_humidity;BME280_pressure;Samples;Min_cycle;Max_cycle;Signal;HPM_P1;HPM_P2
2023/12/11 00:00:54;;;;;;;10.30;9.30;;;;;;;24.64;18.84;100765.98;104884;1299;67651;31
2023/12/11 00:03:21;;;;;;;10.10;8.90;;;;;;;24.63;19.01;100759.20;104640;1309;75133;-90
2023/12/11 00:05:48;;;;;;;10.60;9.00;;;;;;;24.62;18.95;100757.16;104698;1307;67860;-89
2023/12/11 00:08:16;;;;;;;10.50;9.10;;;;;;;24.63;18.89;100759.52;104912;1308;67771;-90
2023/12/11 00:10:46;;;;;;;10.30;9.30;;;;;;;24.64;18.96;100757.45;104895;1308;67652;-89
2023/12/11 00:13:25;;;;;;;;;;;;;;;24.64;18.96;100756.38;105112;1306;68576;-88
2023/12/11 00:16:04;;;;;;;9.70;8.80;;;;;;;24.61;18.99;100756.13;105082;1299;74888;-88
2023/12/11 00:18:32;;;;;;;9.80;8.80;;;;;;;24.61;18.94;100757.05;105452;1307;67010;-89
2023/12/11 00:21:05;;;;;;;9.40;8.50;;;;;;;24.62;18.89;100757.11;104885;1308;67171;-89
2023/12/11 00:23:35;;;;;;;10.00;8.90;;;;;;;24.63;18.94;100759.31;104760;1311;68198;-90
2023/12/11 00:29:03;;;;;;;9.90;8.90;;;;;;;24.63;18.75;100756.27;105170;1305;72373;-90
2023/12/11 00:31:36;;;;;;;9.90;8.90;;;;;;;24.63;18.98;100755.14;105210;1305;67744;-90
2023/12/11 00:34:02;;;;;;;9.90;8.90;;;;;;;24.64;19.03;100752.93;105014;1302;67659;-90
2023/12/11 00:36:28;;;;;;;10.10;9.10;;;;;;;24.65;18.89;100749.66;102512;1311;3254347;-89
2023/12/11 00:39:26;;;;;;;9.10;8.20;;;;;;;24.65;18.93;100750.49;105063;1308;67040;-89
2023/12/11 00:42:17;;;;;;;10.00;9.00;;;;;;;24.64;19.03;100752.55;105230;1308;74494;-89
2023/12/11 00:44:49;;;;;;;9.40;8.40;;;;;;;24.65;18.94;100756.20;105100;1305;67079;-90
2023/12/11 00:47:19;;;;;;;10.50;8.80;;;;;;;24.65;18.96;100755.22;105109;1308;67135;-90
2023/12/11 00:49:45;;;;;;;10.50;9.50;;;;;;;24.66;18.97;100757.02;105032;1306;67805;-88
2023/12/11 00:52:12;;;;;;;9.40;8.50;;;;;;;24.67;18.91;100757.67;104892;1308;67819;-89
2023/12/11 00:54:44;;;;;;;9.80;8.80;;;;;;;24.67;18.82;100754.58;104901;1300;74396;31
2023/12/11 00:57:11;;;;;;;9.50;8.60;;;;;;;24.67;18.91;100746.93;104995;1308;68028;-89
2023/12/11 00:59:39;;;;;;;9.60;8.70;;;;;;;24.67;18.84;100737.87;104833;1307;67726;-89
2023/12/11 01:02:05;;;;;;;9.40;8.40;;;;;;;24.67;18.99;100734.25;104800;1308;67696;-89
2023/12/11 01:04:32;;;;;;;9.50;8.50;;;;;;;24.68;18.92;100733.84;104856;1307;69302;-90
2023/12/11 01:06:59;;;;;;;9.30;8.40;;;;;;;24.68;18.86;100730.75;104693;1307;75313;-88
2023/12/11 01:12:37;;;;;;;9.50;8.30;;;;;;;24.67;18.91;100724.70;104820;1311;67532;-89
2023/12/11 01:15:08;;;;;;;9.90;8.90;;;;;;;24.67;18.85;100724.85;105042;1307;66964;-89
2023/12/11 01:17:36;;;;;;;10.40;9.20;;;;;;;24.67;18.84;100725.58;104921;1308;67659;-89
2023/12/11 01:20:07;;;;;;;10.30;8.90;;;;;;;24.68;18.85;100716.19;104965;1307;74708;-89
2023/12/11 01:22:37;;;;;;;10.00;8.80;;;;;;;24.68;18.96;100715.10;104885;1308;68373;-89
2023/12/11 01:25:10;;;;;;;9.60;8.60;;;;;;;24.68;18.66;100713.81;104825;1307;67726;-89
2023/12/11 01:27:42;;;;;;;10.80;9.70;;;;;;;24.68;18.76;100720.35;104837;1299;67736;-89
2023/12/11 01:30:09;;;;;;;10.40;9.30;;;;;;;24.68;18.75;100718.80;104646;1308;68396;-89
2023/12/11 01:32:35;;;;;;;12.50;9.50;;;;;;;24.69;18.85;100714.02;104858;1305;67658;-89
2023/12/11 01:35:01;;;;;;;10.80;9.50;;;;;;;24.68;18.85;100702.96;104810;1308;67851;-89
2023/12/11 01:37:30;;;;;;;10.40;9.30;;;;;;;24.69;18.91;100701.72;104807;1307;67653;-89
2023/12/11 01:39:59;;;;;;;11.60;10.40;;;;;;;24.69;18.87;100700.95;104876;1304;67529;-89
2023/12/11 01:42:32;;;;;;;10.80;9.70;;;;;;;24.70;18.96;100693.53;104711;1299;67099;31
2023/12/11 01:44:58;;;;;;;10.60;9.50;;;;;;;24.69;18.93;100695.60;104668;1308;75441;-89
2023/12/11 01:47:25;;;;;;;10.60;9.50;;;;;;;24.69;18.82;100691.33;105064;1305;67578;-90
2023/12/11 01:49:51;;;;;;;10.80;9.50;;;;;;;24.70;18.76;100688.95;104619;1308;67121;-90
2023/12/11 01:52:17;;;;;;;11.30;10.10;;;;;;;24.70;18.84;100689.83;104914;1307;67954;-89
2023/12/11 01:54:46;;;;;;;11.40;10.20;;;;;;;24.70;18.85;100690.45;104504;1302;67736;-89
2023/12/11 01:59:57;;;;;;;11.30;10.10;;;;;;;24.69;18.85;100702.08;104937;1308;67299;-90
2023/12/11 02:02:24;;;;;;;12.50;10.10;;;;;;;24.70;18.95;100703.15;104786;1308;67840;-89
2023/12/11 02:04:53;;;;;;;11.40;9.80;;;;;;;24.70;18.78;100700.89;104863;1307;67631;-89
2023/12/11 02:07:19;;;;;;;11.40;10.30;;;;;;;24.70;18.72;100703.46;104876;1308;67544;-88
2023/12/11 02:09:45;;;;;;;11.60;10.40;;;;;;;24.70;18.80;100703.92;104666;1309;67861;-88
2023/12/11 02:12:29;;;;;;;11.80;10.40;;;;;;;24.71;18.86;100709.42;104679;1307;67770;-89
2023/12/11 02:14:55;;;;;;;12.20;10.90;;;;;;;24.70;18.90;100705.16;104806;1308;67578;-89
2023/12/11 02:17:21;;;;;;;11.70;10.50;;;;;;;24.71;19.04;100704.23;104783;1309;67710;-89
2023/12/11 02:19:46;;;;;;;12.00;10.80;;;;;;;24.71;18.87;100706.48;104700;1311;67759;-89
2023/12/11 02:22:13;;;;;;;13.20;10.80;;;;;;;24.71;18.89;100703.83;104663;1310;67688;-89
2023/12/11 02:24:46;;;;;;;11.70;10.50;;;;;;;24.71;18.91;100705.56;104637;1310;67756;-89
2023/12/11 02:27:12;;;;;;;12.50;11.10;;;;;;;24.71;18.86;100704.79;104473;1311;67678;-89
2023/12/11 02:29:43;;;;;;;12.80;11.30;;;;;;;24.71;19.05;100704.59;104836;1310;68143;-89
2023/12/11 02:32:10;;;;;;;12.70;11.40;;;;;;;24.71;18.79;100701.10;104594;1311;67587;-89
2023/12/11 02:34:35;;;;;;;13.00;11.70;;;;;;;24.71;18.89;100697.70;104659;1310;67259;-89
2023/12/11 02:37:01;;;;;;;12.20;10.90;;;;;;;24.72;18.79;100699.70;104633;1310;67737;-89
2023/12/11 02:39:27;;;;;;;13.20;11.80;;;;;;;24.72;18.87;100696.98;104617;1311;67631;-89
2023/12/11 02:41:54;;;;;;;12.30;11.00;;;;;;;24.71;18.82;100692.45;104693;1310;67738;-89
2023/12/11 02:44:20;;;;;;;13.50;11.90;;;;;;;24.71;18.98;100691.98;104727;1311;67632;-88
2023/12/11 02:46:46;;;;;;;13.60;12.10;;;;;;;24.71;18.92;100690.59;104606;1310;67397;-89
2023/12/11 02:49:13;;;;;;;13.00;11.60;;;;;;;24.72;18.93;100689.83;104638;1311;67728;-89
2023/12/11 02:51:39;;;;;;;14.90;11.80;;;;;;;24.72;18.96;100689.83;104808;1309;67469;-89
2023/12/11 02:56:43;;;;;;;13.80;12.00;;;;;;;24.71;18.94;100689.88;105006;1308;75426;-88
2023/12/11 02:59:09;;;;;;;13.60;12.10;;;;;;;24.72;19.04;100691.31;104822;1307;67216;-88
2023/12/11 03:01:39;;;;;;;12.70;11.40;;;;;;;24.71;19.04;100688.13;104890;1308;67295;-88
2023/12/11 03:04:06;;;;;;;13.50;12.10;;;;;;;24.71;18.90;100682.27;104724;1307;67731;-88
2023/12/11 03:06:32;;;;;;;13.70;12.30;;;;;;;24.71;19.07;100680.96;104705;1308;67721;-88
2023/12/11 03:09:12;;;;;;;13.20;11.80;;;;;;;24.72;18.96;100678.29;104658;1309;67071;-88
2023/12/11 03:11:39;;;;;;;13.30;11.90;;;;;;;24.71;19.01;100671.62;104809;1308;67977;-90
2023/12/11 03:14:10;;;;;;;12.60;11.30;;;;;;;24.72;19.00;100672.85;104868;1305;67063;-89
2023/12/11 03:16:37;;;;;;;13.10;11.60;;;;;;;24.72;18.88;100679.33;104604;1308;67808;-89
2023/12/11 03:19:03;;;;;;;12.90;11.50;;;;;;;24.72;18.82;100685.96;104698;1308;67814;-88
2023/12/11 03:21:31;;;;;;;11.80;10.60;;;;;;;24.72;18.88;100686.58;104662;1304;74573;-88
2023/12/11 03:26:44;;;;;;;13.60;12.10;;;;;;;24.72;18.96;100687.41;105035;1305;67055;-89
2023/12/11 03:29:13;;;;;;;12.60;11.20;;;;;;;24.72;18.88;100685.85;104740;1307;67739;-88
2023/12/11 03:31:40;;;;;;;12.10;10.90;;;;;;;24.72;19.10;100683.59;104911;1307;68518;-89
2023/12/11 03:34:07;;;;;;;13.20;11.80;;;;;;;24.72;18.91;100687.61;104633;1307;67695;-89
2023/12/11 03:36:37;;;;;;;13.10;11.70;;;;;;;24.73;18.95;100687.65;104843;1307;67077;-89
2023/12/11 03:39:10;;;;;;;13.00;11.70;;;;;;;24.73;18.91;100688.37;105120;1299;67744;31
2023/12/11 03:41:40;;;;;;;13.50;12.10;;;;;;;24.72;19.05;100690.45;104677;1308;67537;-89
2023/12/11 03:44:10;;;;;;;13.50;12.10;;;;;;;24.72;18.88;100688.59;104874;1308;67404;-89
2023/12/11 03:46:37;;;;;;;13.80;11.90;;;;;;;24.72;18.86;100694.55;104926;1301;74537;-89
2023/12/11 03:52:00;;;;;;;14.20;11.90;;;;;;;24.69;18.84;100687.98;105019;1304;67887;-89
2023/12/11 03:54:51;;;;;;;13.70;11.80;;;;;;;24.67;18.97;100684.30;105000;1304;67172;-90
2023/12/11 03:57:32;;;;;;;16.80;13.10;;;;;;;24.67;19.07;100680.90;104933;1299;66921;-90
2023/12/11 04:00:11;;;;;;;32.00;13.40;;;;;;;24.66;18.79;100677.67;105002;1302;74223;31
2023/12/11 04:02:38;;;;;;;18.70;13.70;;;;;;;24.62;18.89;100679.46;104931;1308;67674;-88
2023/12/11 04:05:04;;;;;;;19.00;13.80;;;;;;;24.58;18.86;100681.02;104850;1307;67624;-88
2023/12/11 04:07:29;;;;;;;27.40;17.20;;;;;;;24.56;18.88;100676.10;104992;1307;67730;-88
2023/12/11 04:09:55;;;;;;;24.40;16.00;;;;;;;24.56;19.03;100675.95;104876;1307;67850;-88
2023/12/11 04:12:21;;;;;;;19.40;17.20;;;;;;;24.56;19.28;100677.63;105013;1308;67586;-88
2023/12/11 04:15:00;;;;;;;28.10;18.30;;;;;;;24.57;19.34;100684.05;104894;1309;67762;-88
2023/12/11 04:17:27;;;;;;;28.60;21.20;;;;;;;24.58;19.52;100679.92;104974;1308;67570;-88
2023/12/11 04:19:52;;;;;;;29.80;21.20;;;;;;;24.58;19.89;100683.73;104834;1313;67621;-88
2023/12/11 04:22:18;;;;;;;35.10;23.20;;;;;;;24.55;20.11;100684.14;105016;1304;67586;-88
2023/12/11 04:24:44;;;;;;;30.80;22.20;;;;;;;24.52;20.26;100689.73;104981;1307;67689;-88
2023/12/11 04:27:09;;;;;;;28.70;22.30;;;;;;;24.51;20.48;100694.89;104823;1308;67900;-87
2023/12/11 04:29:35;;;;;;;25.40;20.90;;;;;;;24.50;20.53;100699.02;104551;1308;66963;-88
2023/12/11 04:32:01;;;;;;;25.20;19.30;;;;;;;24.46;20.55;100703.62;104548;1308;67806;-87
2023/12/11 04:34:26;;;;;;;30.20;19.80;;;;;;;24.40;20.54;100705.59;104810;1308;67738;-88
2023/12/11 04:36:52;;;;;;;30.60;21.30;;;;;;;24.24;20.11;100704.47;104487;1308;67615;-87
2023/12/11 04:39:18;;;;;;;26.60;20.80;;;;;;;23.65;20.07;100702.34;104509;1307;67662;-88
2023/12/11 04:41:52;;;;;;;25.60;22.10;;;;;;;22.85;20.22;100710.77;104797;1308;67664;-92
2023/12/11 04:44:18;;;;;;;23.70;21.10;;;;;;;22.08;20.51;100704.41;104749;1307;72497;-87
2023/12/11 04:46:44;;;;;;;24.20;21.10;;;;;;;21.48;20.82;100707.65;104822;1307;67773;-87
2023/12/11 04:49:09;;;;;;;25.00;21.60;;;;;;;21.02;20.95;100712.23;104591;1309;67807;-88
2023/12/11 04:51:35;;;;;;;24.00;20.80;;;;;;;20.61;21.19;100718.77;104523;1307;67772;-88
2023/12/11 04:54:01;;;;;;;26.90;22.00;;;;;;;20.31;21.49;100711.60;104662;1309;67846;-88
2023/12/11 04:56:26;;;;;;;26.90;22.60;;;;;;;20.01;21.69;100709.39;104484;1309;67908;-88
2023/12/11 04:58:52;;;;;;;25.40;21.50;;;;;;;19.58;21.71;100705.63;104799;1308;68301;-88
2023/12/11 05:01:18;;;;;;;21.60;18.40;;;;;;;19.18;22.24;100704.76;104753;1308;67135;-87
2023/12/11 05:03:44;;;;;;;29.60;17.20;;;;;;;19.26;22.54;100712.18;104530;1309;67866;-88
2023/12/11 05:06:10;;;;;;;37.30;24.50;;;;;;;19.48;22.85;100714.83;104653;1309;68873;-88
2023/12/11 05:08:45;;;;;;;30.60;23.70;;;;;;;19.66;22.77;100712.14;104654;1311;67688;-92
2023/12/11 05:11:11;;;;;;;29.10;21.30;;;;;;;19.87;22.72;100705.43;104649;1307;75044;-88
2023/12/11 05:13:37;;;;;;;23.30;19.90;;;;;;;20.06;22.74;100705.03;104511;1309;68949;-87
2023/12/11 05:16:03;;;;;;;23.20;17.40;;;;;;;20.22;22.63;100697.23;104437;1307;67195;-87
2023/12/11 05:18:29;;;;;;;24.80;17.90;;;;;;;20.39;22.70;100702.55;104561;1309;68478;-87
2023/12/11 05:24:11;;;;;;;27.00;16.90;;;;;;;20.69;22.32;100695.20;104926;1302;73108;-90
2023/12/11 05:27:08;;;;;;;27.70;16.80;;;;;;;20.80;22.19;100694.46;104619;1302;83115;31
2023/12/11 06:15:30;;;;;;;28.90;15.90;;;;;;;21.81;21.34;100717.44;84932;1305;80301;-92
2023/12/11 06:18:14;;;;;;;24.40;15.50;;;;;;;21.91;21.36;100718.31;99109;1307;71918;-84
2023/12/11 06:20:40;;;;;;;22.80;14.80;;;;;;;21.98;21.32;100720.00;104701;1302;68115;-88
2023/12/11 07:01:52;;;;;;;;;;;;;;;22.15;21.19;100716.57;104926;1308;71760;-90
2023/12/11 07:07:09;;;;;;;24.50;15.90;;;;;;;22.13;21.35;100720.61;85390;1308;67113;-88
2023/12/11 07:09:36;;;;;;;34.10;16.50;;;;;;;22.12;21.35;100726.35;104865;1308;74615;-91
2023/12/11 07:12:24;;;;;;;25.70;16.40;;;;;;;22.12;21.52;100724.62;104589;1313;82384;-88
2023/12/11 07:14:52;;;;;;;31.40;17.40;;;;;;;22.11;21.59;100730.45;104847;1309;67540;-87
2023/12/11 07:17:38;;;;;;;33.30;18.00;;;;;;;22.10;21.59;100730.86;104866;1301;67282;-88
2023/12/11 07:20:12;;;;;;;30.70;18.60;;;;;;;22.06;21.66;100735.08;104460;1308;67456;-88
2023/12/11 08:01:52;;;;;;;45.60;17.80;;;;;;;21.69;21.72;100737.70;96862;1308;553027;-88
2023/12/11 08:05:16;;;;;;;36.30;17.10;;;;;;;21.68;21.77;100739.61;104634;1307;66311;-89
2023/12/11 08:07:45;;;;;;;35.40;17.50;;;;;;;21.68;21.79;100731.55;104641;1310;73744;-89
2023/12/11 08:30:58;;;;;;;35.50;17.00;;;;;;;21.67;22.45;100739.65;92794;1302;71477;-90
2023/12/11 08:53:09;;;;;;;37.30;16.00;;;;;;;21.66;22.78;100746.06;85954;1308;67048;-88
2023/12/11 08:55:37;;;;;;;30.90;15.80;;;;;;;21.66;22.61;100746.52;104318;1308;75540;-87
2023/12/11 08:58:03;;;;;;;35.70;15.80;;;;;;;21.66;22.79;100740.42;104368;1309;84173;-88
2023/12/11 09:00:29;;;;;;;31.60;16.80;;;;;;;21.67;22.84;100738.98;104133;1309;69344;-89
2023/12/11 09:02:58;;;;;;;33.60;16.30;;;;;;;21.67;22.75;100737.15;104622;1304;67996;-89
2023/12/11 09:05:50;;;;;;;31.10;15.80;;;;;;;21.67;22.61;100729.57;104524;1307;69501;-89
2023/12/11 09:45:50;;;;;;;28.50;17.60;;;;;;;21.42;23.05;100695.88;104551;1311;72529;-90
2023/12/11 09:48:17;;;;;;;43.10;18.00;;;;;;;21.41;22.95;100698.73;104632;1310;68921;-90
2023/12/11 09:51:02;;;;;;;51.00;18.60;;;;;;;21.40;23.00;100703.70;104445;1307;67262;-87
2023/12/11 09:53:30;;;;;;;47.80;17.30;;;;;;;21.38;22.96;100700.38;104768;1305;75662;-89
2023/12/11 09:55:56;;;;;;;44.30;18.30;;;;;;;21.36;22.98;100695.60;104160;1308;83682;-87
2023/12/11 10:30:27;;;;;;;52.80;21.60;;;;;;;21.03;23.63;100656.53;97016;1305;82451;-87
2023/12/11 10:32:53;;;;;;;43.10;20.20;;;;;;;21.02;23.78;100649.42;103658;1312;73220;-83
2023/12/11 10:35:23;;;;;;;42.90;21.10;;;;;;;21.02;23.81;100643.33;103960;1314;68618;-83
2023/12/11 10:37:48;;;;;;;52.20;19.50;;;;;;;21.02;23.92;100639.80;104314;1309;67752;-83
2023/12/11 10:40:14;;;;;;;48.60;20.10;;;;;;;21.02;24.00;100638.42;104096;1308;67982;-83
2023/12/11 10:42:39;;;;;;;49.40;19.10;;;;;;;21.03;24.15;100631.61;104680;1309;68864;-84
2023/12/11 10:45:06;;;;;;;57.60;22.50;;;;;;;21.04;24.37;100618.42;104343;1308;67261;-86
2023/12/11 10:47:33;;;;;;;47.20;22.30;;;;;;;21.05;24.36;100613.25;104375;1308;67790;-85
2023/12/11 10:50:02;;;;;;;48.00;21.00;;;;;;;21.05;24.42;100611.36;104580;1308;67779;-88
2023/12/11 10:52:34;;;;;;;40.00;20.20;;;;;;;21.06;24.59;100607.52;104701;1308;67758;-89
2023/12/11 10:55:05;;;;;;;41.20;20.70;;;;;;;21.09;25.01;100607.23;104421;1308;83951;-86
2023/12/11 10:57:33;;;;;;;38.40;20.00;;;;;;;21.11;25.00;100600.27;104308;1308;67844;-87
2023/12/11 11:00:00;;;;;;;36.50;19.30;;;;;;;21.12;24.96;100604.02;104358;1310;68480;-88
2023/12/11 11:02:29;;;;;;;48.70;20.20;;;;;;;21.11;24.92;100606.67;104408;1310;67210;-90
2023/12/11 11:47:36;;;;;;;;;;;;;;;;;;;;;
2023/12/11 11:50:32;;;;;;;26.30;17.70;;;;;;;20.70;24.24;100557.55;104839;1303;67713;-90
2023/12/11 12:44:59;;;;;;;28.10;16.40;;;;;;;20.60;24.22;100503.95;92074;1304;71438;-91
2023/12/11 13:20:29;;;;;;;123.30;24.40;;;;;;;20.44;24.60;100487.21;105070;1302;67919;-89
2023/12/11 13:40:28;;;;;;;55.60;20.10;;;;;;;20.32;24.87;100477.67;92552;1304;67651;31
2023/12/11 13:49:49;;;;;;;33.60;18.60;;;;;;;20.30;25.03;100482.16;105100;1304;73197;-92
2023/12/11 13:58:39;;;;;;;30.50;18.10;;;;;;;20.27;24.89;100487.37;104702;1301;74255;-90
2023/12/11 14:01:05;;;;;;;29.60;19.30;;;;;;;20.27;25.00;100489.25;104619;1310;83198;-89
2023/12/11 14:03:31;;;;;;;26.90;16.70;;;;;;;20.26;24.98;100494.05;104414;1310;68092;-89
2023/12/11 14:15:07;;;;;;;29.90;19.20;;;;;;;20.23;25.10;100498.42;104699;1308;81760;-88
2023/12/11 14:17:34;;;;;;;21.50;16.70;;;;;;;20.23;24.95;100501.86;104550;1304;66967;-90
2023/12/11 14:42:11;;;;;;;35.80;22.70;;;;;;;20.20;25.23;100500.88;83356;1308;66608;31
2023/12/11 14:47:56;;;;;;;36.60;22.10;;;;;;;20.22;25.17;100489.08;104763;1308;81580;-89
2023/12/11 15:08:57;;;;;;;29.60;18.40;;;;;;;20.25;25.16;100469.16;100369;1304;67325;-91
2023/12/11 15:14:45;;;;;;;53.20;21.30;;;;;;;20.25;25.12;100456.90;105214;1304;74240;-90
2023/12/11 15:17:11;;;;;;;58.60;18.80;;;;;;;20.25;25.24;100454.13;104495;1308;83025;-87
2023/12/11 15:19:40;;;;;;;59.80;19.70;;;;;;;20.25;25.14;100453.42;104533;1308;68143;-90
2023/12/11 15:24:48;;;;;;;48.80;18.60;;;;;;;20.25;25.26;100464.96;104664;1302;67685;-90
2023/12/11 15:33:05;;;;;;;32.70;18.80;;;;;;;20.23;25.25;100461.14;104787;1309;71125;-91
2023/12/11 15:41:57;;;;;;;27.70;18.60;;;;;;;20.21;25.24;100469.57;103892;1317;73404;-90
2023/12/11 15:47:31;;;;;;;28.10;18.00;;;;;;;20.21;25.21;100473.44;104624;1311;73506;-91
2023/12/11 15:49:58;;;;;;;40.50;18.50;;;;;;;20.21;25.23;100476.42;104273;1311;67299;-90
2023/12/11 15:52:24;;;;;;;39.50;18.50;;;;;;;20.20;25.18;100471.71;104260;1310;67188;-91
2023/12/11 15:54:56;;;;;;;34.70;18.50;;;;;;;20.20;25.17;100468.02;104311;1310;74196;-89
2023/12/11 15:57:22;;;;;;;32.10;19.10;;;;;;;20.20;25.29;100469.16;104156;1310;83158;-89
2023/12/11 15:59:47;;;;;;;39.30;18.80;;;;;;;20.19;25.28;100465.83;104248;1310;67225;-89
2023/12/11 16:02:13;;;;;;;34.60;17.90;;;;;;;20.19;25.24;100464.55;104281;1310;67318;-89
2023/12/11 16:04:39;;;;;;;44.50;18.60;;;;;;;20.17;25.26;100462.20;104277;1311;67861;-89
2023/12/11 16:07:05;;;;;;;48.30;19.90;;;;;;;20.16;25.28;100467.60;104163;1311;67662;-89
2023/12/11 16:09:31;;;;;;;50.70;19.30;;;;;;;20.15;25.28;100465.96;104446;1311;67571;-89
2023/12/11 16:11:57;;;;;;;55.20;18.60;;;;;;;20.14;25.32;100470.52;104288;1311;67129;-89
2023/12/11 16:14:22;;;;;;;58.70;19.00;;;;;;;20.13;25.26;100479.34;104138;1311;67609;-88
2023/12/11 16:16:48;;;;;;;62.00;21.20;;;;;;;20.12;25.34;100489.41;104241;1311;67503;-88
2023/12/11 16:19:14;;;;;;;77.10;20.60;;;;;;;20.11;25.31;100503.04;104283;1311;67705;-87
2023/12/11 16:21:39;;;;;;;64.00;21.40;;;;;;;20.12;25.35;100506.61;104238;1311;68114;-88
2023/12/11 16:27:19;;;;;;;96.40;22.70;;;;;;;20.09;25.33;100505.48;104984;1306;67647;-91
2023/12/11 16:29:45;;;;;;;117.50;27.10;;;;;;;20.07;25.27;100503.18;104751;1307;75346;-88
2023/12/11 16:32:10;;;;;;;89.00;32.80;;;;;;;20.06;25.34;100505.11;104680;1309;67322;-87
2023/12/11 16:34:36;;;;;;;102.40;38.00;;;;;;;20.04;25.33;100503.92;104704;1307;67776;-87
2023/12/11 16:37:01;;;;;;;63.60;32.10;;;;;;;20.01;25.40;100502.42;104835;1308;67565;-87
2023/12/11 16:39:27;;;;;;;69.70;29.70;;;;;;;19.99;25.31;100501.20;104963;1309;67666;-88
2023/12/11 16:41:53;;;;;;;73.10;28.00;;;;;;;19.97;25.40;100497.88;104580;1307;84059;-87
2023/12/11 16:44:19;;;;;;;76.30;28.00;;;;;;;19.96;25.38;100497.61;104640;1307;67736;-87
2023/12/11 16:46:45;;;;;;;90.40;27.00;;;;;;;19.95;25.38;100500.21;104636;1307;67717;-87
2023/12/11 16:49:12;;;;;;;58.90;25.50;;;;;;;19.94;25.38;100506.19;104616;1308;67604;-87
2023/12/11 16:51:38;;;;;;;69.90;25.20;;;;;;;19.93;25.35;100509.80;104558;1307;67647;-87
2023/12/11 16:56:44;;;;;;;51.50;24.30;;;;;;;19.91;25.43;100504.52;104845;1308;73520;-87
2023/12/11 16:59:10;;;;;;;53.30;23.20;;;;;;;19.90;25.36;100494.92;104518;1308;67558;-87
2023/12/11 17:01:36;;;;;;;54.80;23.00;;;;;;;19.89;25.42;100493.38;104729;1308;67673;-87
2023/12/11 17:04:01;;;;;;;64.60;22.80;;;;;;;19.88;25.51;100496.70;104988;1308;66917;-87
2023/12/11 17:06:27;;;;;;;59.90;23.70;;;;;;;19.88;25.39;100498.98;104611;1308;67780;-87
2023/12/11 17:08:53;;;;;;;49.80;22.20;;;;;;;19.87;25.42;100497.59;104628;1308;67483;-87
2023/12/11 17:11:19;;;;;;;95.10;24.20;;;;;;;19.85;25.44;100499.37;104696;1308;67052;-87
2023/12/11 17:13:44;;;;;;;111.60;24.20;;;;;;;19.84;25.44;100501.05;104526;1308;67312;-87
2023/12/11 17:16:10;;;;;;;107.60;23.90;;;;;;;19.83;25.48;100496.08;104642;1308;67670;-87
2023/12/11 17:18:36;;;;;;;88.80;22.60;;;;;;;19.82;25.41;100488.33;104650;1308;67495;-87
2023/12/11 17:21:10;;;;;;;73.50;21.90;;;;;;;19.82;25.43;100483.52;104473;1308;90107;-91
2023/12/11 17:23:37;;;;;;;105.40;23.20;;;;;;;19.82;25.46;100477.66;104689;1311;67033;-87
2023/12/11 17:26:03;;;;;;;120.00;24.20;;;;;;;19.82;25.34;100476.88;104664;1309;73453;-87
2023/12/11 17:28:29;;;;;;;92.40;22.50;;;;;;;19.81;25.40;100480.77;104585;1308;67717;-87
2023/12/11 17:30:55;;;;;;;76.50;21.90;;;;;;;19.82;25.47;100486.68;104409;1308;67627;-87
2023/12/11 17:33:21;;;;;;;73.40;21.80;;;;;;;19.80;25.47;100491.73;104680;1308;67882;-87
2023/12/11 17:35:46;;;;;;;69.60;21.70;;;;;;;19.80;25.49;100487.25;104576;1308;67689;-87
2023/12/11 17:38:12;;;;;;;55.50;22.20;;;;;;;19.81;25.51;100483.62;104616;1308;67673;-87
2023/12/11 17:40:37;;;;;;;57.70;21.60;;;;;;;19.80;25.56;100472.84;104873;1308;72516;-87
2023/12/11 17:43:03;;;;;;;55.00;20.80;;;;;;;19.79;25.53;100455.01;104633;1308;67676;-87
2023/12/11 17:45:34;;;;;;;38.90;19.50;;;;;;;19.78;25.54;100457.15;104583;1308;66969;-87
2023/12/11 17:48:03;;;;;;;;;;;;;;;19.77;25.42;100453.61;104533;1308;74379;-92
2023/12/11 17:50:29;;;;;;;31.80;19.10;;;;;;;19.71;25.46;100456.02;104837;1309;81811;-87
2023/12/11 17:52:55;;;;;;;35.90;19.10;;;;;;;19.71;25.43;100464.52;104542;1308;67735;-87
2023/12/11 17:55:21;;;;;;;27.40;18.60;;;;;;;19.71;25.35;100457.33;104394;1309;67827;-87
2023/12/11 17:57:47;;;;;;;32.40;19.30;;;;;;;19.69;25.39;100451.71;104936;1308;67549;-87
2023/12/11 18:00:13;;;;;;;37.70;18.40;;;;;;;19.68;25.24;100443.84;104711;1308;66912;-87
2023/12/11 18:02:39;;;;;;;30.60;19.50;;;;;;;19.67;25.28;100443.38;104711;1308;67013;-87
2023/12/11 18:05:05;;;;;;;31.40;18.60;;;;;;;19.65;25.34;100444.80;104657;1311;67841;-87
2023/12/11 18:07:31;;;;;;;31.20;18.40;;;;;;;19.63;25.06;100441.52;104754;1308;67018;-87
2023/12/11 18:09:56;;;;;;;25.60;18.10;;;;;;;19.63;25.18;100442.02;104703;1308;74525;-87
2023/12/11 18:12:22;;;;;;;23.50;17.00;;;;;;;19.61;25.18;100436.51;104973;1308;67571;-87
2023/12/11 18:14:58;;;;;;;24.80;18.60;;;;;;;19.61;25.14;100437.94;104526;1308;67018;-92
2023/12/11 18:17:24;;;;;;;24.50;17.90;;;;;;;19.60;25.04;100440.48;104500;1309;67548;-87
2023/12/11 18:19:50;;;;;;;28.50;17.80;;;;;;;19.58;25.05;100438.27;104591;1308;67667;-87
2023/12/11 18:22:15;;;;;;;26.20;19.40;;;;;;;19.57;25.05;100438.31;104571;1308;67585;-88
2023/12/11 18:24:41;;;;;;;24.40;18.20;;;;;;;19.56;25.10;100444.64;104560;1308;67726;-88
2023/12/11 18:27:07;;;;;;;22.80;18.20;;;;;;;19.55;25.00;100445.91;104699;1308;67678;-88
2023/12/11 18:29:32;;;;;;;23.30;18.30;;;;;;;19.53;24.90;100443.03;104937;1308;66940;-87
2023/12/11 18:31:58;;;;;;;26.80;18.40;;;;;;;19.52;24.95;100445.02;104673;1309;67667;-87
2023/12/11 18:34:24;;;;;;;25.70;18.90;;;;;;;19.51;24.90;100441.74;104729;1308;67919;-87
2023/12/11 18:36:49;;;;;;;22.40;17.80;;;;;;;19.50;24.96;100435.42;104954;1308;67347;-87
2023/12/11 18:39:15;;;;;;;26.00;18.80;;;;;;;19.48;24.94;100436.80;104572;1308;67131;-87
2023/12/11 18:44:22;;;;;;;22.70;18.20;;;;;;;19.46;24.97;100424.69;104838;1308;83120;-87
2023/12/11 18:46:48;;;;;;;20.80;17.90;;;;;;;19.45;24.89;100415.23;104720;1308;67110;-87
2023/12/11 18:49:14;;;;;;;25.50;17.70;;;;;;;19.44;25.07;100398.45;104674;1309;67805;-87
2023/12/11 18:51:42;;;;;;;22.80;17.30;;;;;;;19.43;24.94;100392.66;104633;1308;67654;-88
2023/12/11 18:54:08;;;;;;;21.70;17.00;;;;;;;19.42;25.00;100392.42;104668;1308;67854;-87
2023/12/11 18:59:19;;;;;;;24.80;16.50;;;;;;;19.40;25.00;100396.17;104238;1308;71217;-86
2023/12/11 19:01:44;;;;;;;22.00;16.30;;;;;;;19.40;25.00;100385.21;104365;1314;67698;-86
2023/12/11 19:04:10;;;;;;;27.50;17.00;;;;;;;19.41;25.02;100377.46;104641;1308;67722;-86
2023/12/11 19:06:36;;;;;;;22.70;16.40;;;;;;;19.42;25.03;100384.09;104530;1308;67043;-86
2023/12/11 19:09:02;;;;;;;22.00;15.70;;;;;;;19.42;25.09;100383.23;104616;1308;67742;-87
2023/12/11 19:11:27;;;;;;;18.50;15.90;;;;;;;19.43;25.02;100382.16;104532;1311;67741;-86
2023/12/11 19:13:53;;;;;;;23.20;16.60;;;;;;;19.43;25.09;100376.45;104434;1314;67835;-87
2023/12/11 19:16:19;;;;;;;23.70;16.60;;;;;;;19.44;25.07;100365.59;104525;1308;66976;-87
2023/12/11 19:18:45;;;;;;;22.50;16.00;;;;;;;19.44;25.02;100359.98;104547;1308;67102;-87
2023/12/11 19:21:13;;;;;;;25.70;17.40;;;;;;;19.44;25.09;100362.42;104397;1308;67770;-87
2023/12/11 19:23:41;;;;;;;23.60;16.80;;;;;;;19.44;25.01;100368.45;104517;1308;67164;-91
2023/12/11 19:26:09;;;;;;;22.60;16.70;;;;;;;19.44;24.99;100370.30;104588;1311;67038;-87
2023/12/11 19:28:34;;;;;;;22.20;17.10;;;;;;;19.44;24.96;100369.47;104567;1308;74673;-87
2023/12/11 19:31:00;;;;;;;20.80;16.70;;;;;;;19.45;25.09;100359.52;104425;1309;67044;-87